Time;durP1;ratioP1;P1;durP2;ratioP2;P2;SDS_P1;SDS_P2;PMS_P1;PMS_P2;Temp;Humidity;BMP_temperature;BMP_pressure;BME280_temperature;BME280_humidity;BME280_pressure;Samples;Min_cycle;Max_cycle;Signal;HPM_P1;HPM_P2
2022/01/08 00:01:18;;;;;;;;;;;0.20;99.90;;;;;;5012715;28;19925;-72
2022/01/08 00:03:51;;;;;;;;;;;0.10;99.90;;;;;;5043477;28;20023;-71
2022/01/08 00:06:18;;;;;;;;;;;0.00;99.90;;;;;;5032503;28;19924;-72
2022/01/08 00:08:50;;;;;;;;;;;0.00;99.90;;;;;;5016501;28;19920;-73
2022/01/08 00:11:25;;;;;;;;;;;-0.10;99.90;;;;;;5032613;28;19920;-73
2022/01/08 00:13:52;;;;;;;;;;;-0.10;99.90;;;;;;5012480;28;20451;-73
2022/01/08 00:16:19;;;;;;;;;;;-0.20;99.90;;;;;;5029474;28;20023;-73
2022/01/08 00:18:51;;;;;;;;;;;-0.20;99.90;;;;;;5044845;28;19966;-72
2022/01/08 00:21:23;;;;;;;;;;;-0.20;99.90;;;;;;5034332;28;19924;-73
2022/01/08 00:23:49;;;;;;;;;;;-0.20;99.90;;;;;;5035826;28;19924;-73
2022/01/08 00:26:21;;;;;;;;;;;-0.20;99.90;;;;;;5036242;28;19946;-72
2022/01/08 00:28:53;;;;;;;;;;;-0.20;99.90;;;;;;5016027;28;19931;-73
2022/01/08 00:31:19;;;;;;;;;;;-0.20;99.90;;;;;;5030638;28;19927;-73
2022/01/08 00:33:52;;;;;;;;;;;-0.30;99.90;;;;;;5019516;28;20012;-73
2022/01/08 00:36:18;;;;;;;;;;;-0.20;99.90;;;;;;5028243;28;19924;-73
2022/01/08 00:38:50;;;;;;;;;;;-0.30;99.90;;;;;;5035503;28;19921;-72
2022/01/08 00:41:21;;;;;;;;;;;-0.30;99.90;;;;;;5034937;28;19927;-72
2022/01/08 00:43:54;;;;;;;;;;;-0.30;99.90;;;;;;5035746;28;19926;-72
2022/01/08 00:46:20;;;;;;;;;;;-0.40;99.90;;;;;;5050984;28;19920;-71
2022/01/08 00:48:52;;;;;;;;;;;-0.40;99.90;;;;;;5023449;28;19951;-73
2022/01/08 00:51:24;;;;;;;;;;;-0.60;99.90;;;;;;5036417;28;19927;-73
2022/01/08 00:53:55;;;;;;;;;;;-0.70;99.90;;;;;;5019918;28;19997;-71
2022/01/08 00:56:27;;;;;;;;;;;-0.70;99.90;;;;;;5035942;28;19921;-73
2022/01/08 00:58:59;;;;;;;;;;;-0.80;99.90;;;;;;5035704;28;20352;-71
2022/01/08 01:01:30;;;;;;;;;;;-0.80;99.90;;;;;;5053647;28;19920;-71
2022/01/08 01:04:02;;;;;;;;;;;-1.00;99.90;;;;;;5036018;28;20410;-71
2022/01/08 01:06:33;;;;;;;;;;;-1.00;99.90;;;;;;5037882;28;20390;-71
2022/01/08 01:09:00;;;;;;;;;;;-1.10;99.90;;;;;;5050561;28;19972;-72
2022/01/08 01:11:32;;;;;;;;;;;-1.10;99.90;;;;;;5035451;28;20380;-72
2022/01/08 01:13:58;;;;;;;;;;;-1.20;99.90;;;;;;5035006;28;19924;-72
2022/01/08 01:16:25;;;;;;;;;;;-1.20;99.90;;;;;;5053534;28;20112;-72
2022/01/08 01:18:59;;;;;;;;;;;-1.30;99.90;;;;;;5036632;28;19927;-72
2022/01/08 01:21:26;;;;;;;;;;;-1.30;99.90;;;;;;5035443;28;20015;-73
2022/01/08 01:23:53;;;;;;;;;;;-1.20;99.90;;;;;;5035284;28;20007;-72
2022/01/08 01:26:28;;;;;;;;;;;-1.20;99.90;;;;;;5019746;28;20011;-72
2022/01/08 01:29:22;;;;;;;;;;;-1.10;99.90;;;;;;5053208;28;19927;-72
2022/01/08 01:48:22;;;;;;;;;;;-0.90;99.90;;;;;;5034953;28;20626;-72
2022/01/08 01:50:49;;;;;;;;;;;-1.00;99.90;;;;;;5035050;28;20031;-72
2022/01/08 01:53:20;;;;;;;;;;;-1.00;99.90;;;;;;5034591;28;20602;-72
2022/01/08 01:55:50;;;;;;;;;;;-1.10;99.90;;;;;;5018466;28;20299;-72
2022/01/08 01:58:22;;;;;;;;;;;-1.10;99.90;;;;;;5052636;28;19925;-72
2022/01/08 02:00:53;;;;;;;;;;;-1.10;99.90;;;;;;5035154;28;20336;-72
2022/01/08 02:03:25;;;;;;;;;;;-1.20;99.90;;;;;;5050732;28;19920;-72
2022/01/08 02:05:59;;;;;;;;;;;-1.20;99.90;;;;;;5034017;28;19921;-72
2022/01/08 02:08:26;;;;;;;;;;;-1.20;99.90;;;;;;5034025;28;19959;-72
2022/01/08 02:10:53;;;;;;;;;;;-1.20;99.90;;;;;;5033984;28;19943;-72
2022/01/08 02:13:26;;;;;;;;;;;-1.30;99.90;;;;;;5033956;28;20423;-72
2022/01/08 02:16:01;;;;;;;;;;;-1.30;99.90;;;;;;5018223;28;19960;-72
2022/01/08 02:18:34;;;;;;;;;;;-1.30;99.90;;;;;;5033661;28;20016;-72
2022/01/08 02:21:06;;;;;;;;;;;-1.20;99.90;;;;;;5052504;28;19920;-72
2022/01/08 02:23:33;;;;;;;;;;;-1.20;99.90;;;;;;5033800;28;19921;-72
2022/01/08 02:26:04;;;;;;;;;;;-1.10;99.90;;;;;;5034360;28;20290;-72
2022/01/08 02:28:36;;;;;;;;;;;-1.10;99.90;;;;;;5033950;28;19925;-72
2022/01/08 02:31:19;;;;;;;;;;;-1.10;99.90;;;;;;5018288;28;19931;-72
2022/01/08 02:33:52;;;;;;;;;;;-1.20;99.90;;;;;;5017588;28;20520;-72
2022/01/08 02:36:21;;;;;;;;;;;-1.20;99.90;;;;;;5051451;28;19927;-73
2022/01/08 02:38:50;;;;;;;;;;;-1.20;99.90;;;;;;5017155;28;20456;-71
2022/01/08 02:41:21;;;;;;;;;;;-1.20;99.90;;;;;;5034357;28;19927;-73
2022/01/08 02:43:54;;;;;;;;;;;-1.20;99.90;;;;;;5014823;28;20016;-73
2022/01/08 02:46:28;;;;;;;;;;;-1.20;99.90;;;;;;5025010;28;20352;-72
2022/01/08 02:48:55;;;;;;;;;;;-1.20;99.90;;;;;;5033634;28;19958;-72
2022/01/08 02:51:21;;;;;;;;;;;-1.20;99.90;;;;;;5033594;28;19927;-72
2022/01/08 02:53:55;;;;;;;;;;;-1.20;99.90;;;;;;5034519;28;20377;-72
2022/01/08 02:56:28;;;;;;;;;;;-1.20;99.90;;;;;;5033843;28;19967;-72
2022/01/08 02:59:02;;;;;;;;;;;-1.10;99.90;;;;;;5034044;28;19963;-72
2022/01/08 03:01:34;;;;;;;;;;;-1.00;99.90;;;;;;5017941;28;19982;-72
2022/01/08 03:04:02;;;;;;;;;;;-1.00;99.90;;;;;;5051122;28;19960;-72
2022/01/08 03:06:36;;;;;;;;;;;-1.00;99.90;;;;;;5018584;28;20309;-70
2022/01/08 03:09:08;;;;;;;;;;;-1.00;99.90;;;;;;5033512;28;19924;-72
2022/01/08 03:11:38;;;;;;;;;;;-1.00;99.90;;;;;;5033871;28;19920;-71
2022/01/08 03:14:05;;;;;;;;;;;-1.00;99.90;;;;;;5033097;28;20270;-72
2022/01/08 03:16:32;;;;;;;;;;;-1.00;99.90;;;;;;5033528;28;19920;-72
2022/01/08 03:19:10;;;;;;;;;;;-1.10;99.90;;;;;;5051291;28;20386;-71
2022/01/08 03:21:46;;;;;;;;;;;-1.10;99.90;;;;;;5017044;28;20035;-72
2022/01/08 03:24:25;;;;;;;;;;;-1.10;99.90;;;;;;5029110;28;19921;-71
2022/01/08 03:27:05;;;;;;;;;;;-1.10;99.90;;;;;;5038698;28;20031;-72
2022/01/08 03:29:38;;;;;;;;;;;-1.20;99.90;;;;;;5033717;28;20015;-71
2022/01/08 03:32:05;;;;;;;;;;;-1.20;99.90;;;;;;5051070;28;19936;-72
2022/01/08 03:34:39;;;;;;;;;;;-1.20;99.90;;;;;;5050635;28;19921;-71
2022/01/08 03:37:11;;;;;;;;;;;-1.10;99.90;;;;;;5033155;28;20304;-72
2022/01/08 03:39:39;;;;;;;;;;;-1.00;99.90;;;;;;5033150;28;19920;-71
2022/01/08 03:42:11;;;;;;;;;;;-1.00;99.90;;;;;;5017347;28;19921;-72
2022/01/08 03:44:38;;;;;;;;;;;-0.90;99.90;;;;;;5050550;28;19925;-72
2022/01/08 03:49:49;;;;;;;;;;;-0.90;99.90;;;;;;5051080;28;20389;-72
2022/01/08 03:52:15;;;;;;;;;;;-0.90;99.90;;;;;;5050931;28;20385;-72
2022/01/08 03:54:47;;;;;;;;;;;-0.90;99.90;;;;;;5032976;28;19927;-72
2022/01/08 03:57:14;;;;;;;;;;;-0.90;99.90;;;;;;5036625;28;19921;-72
2022/01/08 03:59:46;;;;;;;;;;;-0.80;99.90;;;;;;5054678;28;19920;-71
2022/01/08 04:02:17;;;;;;;;;;;-0.50;99.90;;;;;;5054366;28;19920;-72
2022/01/08 04:04:44;;;;;;;;;;;-0.40;99.90;;;;;;5037115;28;19944;-72
2022/01/08 04:07:16;;;;;;;;;;;-0.30;99.90;;;;;;5037592;28;19921;-72
2022/01/08 04:09:49;;;;;;;;;;;-0.30;99.90;;;;;;5037899;28;19982;-72
2022/01/08 04:12:31;;;;;;;;;;;-0.30;99.90;;;;;;5037167;28;19920;-72
2022/01/08 04:15:09;;;;;;;;;;;-0.20;99.90;;;;;;5025574;28;19921;-71
2022/01/08 04:17:35;;;;;;;;;;;-0.20;99.90;;;;;;5054455;28;20359;-71
2022/01/08 04:20:04;;;;;;;;;;;-0.10;99.90;;;;;;5036833;28;20012;-72
2022/01/08 04:22:36;;;;;;;;;;;-0.10;99.90;;;;;;5036860;28;19920;-72
2022/01/08 04:25:03;;;;;;;;;;;-0.10;99.90;;;;;;5054343;28;19921;-72
2022/01/08 04:27:34;;;;;;;;;;;-0.10;99.90;;;;;;5020636;28;20015;-72
2022/01/08 04:30:02;;;;;;;;;;;0.00;99.90;;;;;;5036206;28;19939;-72
2022/01/08 04:32:33;;;;;;;;;;;0.00;99.90;;;;;;5036799;28;19927;-72
2022/01/08 04:35:05;;;;;;;;;;;0.10;99.90;;;;;;5053933;28;19921;-72
2022/01/08 04:37:37;;;;;;;;;;;0.10;99.90;;;;;;5020480;28;19927;-72
2022/01/08 04:40:09;;;;;;;;;;;0.10;99.90;;;;;;5053805;28;19921;-72
2022/01/08 04:42:40;;;;;;;;;;;0.20;99.90;;;;;;5053755;28;19920;-72
2022/01/08 04:45:12;;;;;;;;;;;0.20;99.90;;;;;;5053624;28;19921;-72
2022/01/08 04:47:44;;;;;;;;;;;0.30;99.90;;;;;;5020432;28;19921;-72
2022/01/08 04:50:14;;;;;;;;;;;0.30;99.90;;;;;;5035990;28;19920;-71
2022/01/08 04:52:41;;;;;;;;;;;0.30;99.90;;;;;;5053398;28;19924;-72
2022/01/08 04:55:08;;;;;;;;;;;0.40;99.90;;;;;;5035891;28;20320;-73
2022/01/08 04:57:40;;;;;;;;;;;0.40;99.90;;;;;;5053736;28;19921;-71
2022/01/08 05:00:09;;;;;;;;;;;0.40;99.90;;;;;;5035160;28;19981;-72
2022/01/08 05:02:40;;;;;;;;;;;0.50;99.90;;;;;;5019664;28;20324;-72
2022/01/08 05:05:07;;;;;;;;;;;0.50;99.90;;;;;;5035773;28;20012;-72
2022/01/08 05:07:34;;;;;;;;;;;0.50;99.90;;;;;;5052487;28;20015;-72
2022/01/08 05:10:09;;;;;;;;;;;0.50;99.90;;;;;;5037208;28;20294;-71
2022/01/08 05:12:38;;;;;;;;;;;0.60;99.90;;;;;;5053228;28;20381;-71
2022/01/08 05:15:07;;;;;;;;;;;0.60;99.90;;;;;;5053489;28;19920;-70
2022/01/08 05:17:39;;;;;;;;;;;0.60;99.90;;;;;;5035262;28;20022;-71
2022/01/08 05:20:12;;;;;;;;;;;0.70;99.90;;;;;;5053425;28;19963;-71
2022/01/08 05:25:20;;;;;;;;;;;0.70;99.90;;;;;;5035403;28;19931;-71
2022/01/08 05:27:48;;;;;;;;;;;0.70;99.90;;;;;;5053204;28;19921;-71
2022/01/08 05:30:21;;;;;;;;;;;0.70;99.90;;;;;;5053247;28;19925;-71
2022/01/08 05:32:48;;;;;;;;;;;0.70;99.90;;;;;;5052757;28;20015;-71
2022/01/08 05:35:20;;;;;;;;;;;0.70;99.90;;;;;;5035255;28;19930;-71
2022/01/08 05:37:52;;;;;;;;;;;0.70;99.90;;;;;;5053060;28;19921;-71
2022/01/08 05:40:20;;;;;;;;;;;0.80;99.90;;;;;;5035161;28;19928;-71
2022/01/08 05:42:47;;;;;;;;;;;0.80;99.90;;;;;;5034611;28;19921;-71
2022/01/08 05:45:14;;;;;;;;;;;0.80;99.90;;;;;;5034821;28;19927;-72
2022/01/08 05:47:40;;;;;;;;;;;0.80;99.90;;;;;;5034681;28;19927;-71
2022/01/08 05:50:12;;;;;;;;;;;0.90;99.90;;;;;;5035818;28;20270;-71
2022/01/08 05:52:39;;;;;;;;;;;0.90;99.90;;;;;;5034474;28;19927;-71
2022/01/08 05:55:11;;;;;;;;;;;0.90;99.90;;;;;;5034961;28;20027;-71
2022/01/08 05:57:45;;;;;;;;;;;0.90;99.90;;;;;;5052734;28;19920;-71
2022/01/08 06:00:13;;;;;;;;;;;0.90;99.90;;;;;;5052434;28;19921;-71
2022/01/08 06:02:45;;;;;;;;;;;0.90;99.90;;;;;;5034147;28;19920;-71
2022/01/08 06:05:17;;;;;;;;;;;0.90;99.90;;;;;;5034583;28;20013;-72
2022/01/08 06:07:45;;;;;;;;;;;1.00;99.90;;;;;;5052295;28;19920;-72
2022/01/08 06:10:16;;;;;;;;;;;1.00;99.90;;;;;;5034591;28;19927;-71
2022/01/08 06:12:52;;;;;;;;;;;1.00;99.90;;;;;;5033998;28;20304;-70
2022/01/08 06:15:24;;;;;;;;;;;0.90;99.90;;;;;;5052217;28;19921;-71
2022/01/08 06:17:52;;;;;;;;;;;1.00;99.90;;;;;;5034409;28;19920;-72
2022/01/08 06:20:18;;;;;;;;;;;1.00;99.90;;;;;;5034203;28;20304;-71
2022/01/08 06:22:50;;;;;;;;;;;1.10;99.90;;;;;;5017740;28;19925;-73
2022/01/08 06:25:21;;;;;;;;;;;1.10;99.90;;;;;;5030507;28;20431;-71
2022/01/08 06:27:54;;;;;;;;;;;1.10;99.90;;;;;;5045994;28;20397;-71
2022/01/08 06:30:26;;;;;;;;;;;1.10;99.90;;;;;;5040698;28;19920;-71
2022/01/08 06:32:54;;;;;;;;;;;1.10;99.90;;;;;;5052293;28;19921;-73
2022/01/08 06:35:27;;;;;;;;;;;1.10;99.90;;;;;;5015382;28;19921;-71
2022/01/08 06:37:54;;;;;;;;;;;1.20;99.90;;;;;;5014098;28;19921;-71
2022/01/08 06:40:23;;;;;;;;;;;1.10;99.90;;;;;;5046692;28;19971;-73
2022/01/08 06:42:55;;;;;;;;;;;1.10;99.90;;;;;;5049275;28;20014;-72
2022/01/08 06:45:22;;;;;;;;;;;1.10;99.90;;;;;;5032344;28;20377;-70
2022/01/08 06:47:49;;;;;;;;;;;1.00;99.90;;;;;;5033876;28;20356;-71
2022/01/08 06:50:20;;;;;;;;;;;1.00;99.90;;;;;;5051674;28;19931;-72
2022/01/08 06:52:52;;;;;;;;;;;1.00;99.90;;;;;;5033434;28;19927;-72
2022/01/08 06:55:25;;;;;;;;;;;0.90;99.90;;;;;;5034865;28;19927;-72
2022/01/08 06:57:58;;;;;;;;;;;0.90;99.90;;;;;;5033731;28;19921;-72
2022/01/08 07:00:31;;;;;;;;;;;0.90;99.90;;;;;;5034771;28;19974;-73
2022/01/08 07:03:03;;;;;;;;;;;0.90;99.90;;;;;;5032911;28;19971;-71
2022/01/08 07:05:29;;;;;;;;;;;0.90;99.90;;;;;;5033810;28;20050;-73
2022/01/08 07:07:56;;;;;;;;;;;0.90;99.90;;;;;;5033391;28;20011;-73
2022/01/08 07:10:22;;;;;;;;;;;1.00;99.90;;;;;;5033673;28;19924;-73
2022/01/08 07:12:49;;;;;;;;;;;1.00;99.90;;;;;;5033184;28;20018;-73
2022/01/08 07:15:16;;;;;;;;;;;1.00;99.90;;;;;;5033903;28;19920;-72
2022/01/08 07:17:50;;;;;;;;;;;1.00;99.90;;;;;;5033127;28;19967;-73
2022/01/08 07:20:22;;;;;;;;;;;1.10;99.90;;;;;;5033483;28;19920;-73
2022/01/08 07:22:54;;;;;;;;;;;1.10;99.90;;;;;;5032979;28;20365;-72
2022/01/08 07:25:26;;;;;;;;;;;1.20;99.90;;;;;;5033585;28;19927;-72
2022/01/08 07:27:59;;;;;;;;;;;1.20;99.90;;;;;;5051189;28;19921;-72
2022/01/08 07:30:28;;;;;;;;;;;1.20;99.90;;;;;;5018089;28;19936;-72
2022/01/08 07:33:00;;;;;;;;;;;1.20;99.90;;;;;;5037230;28;19921;-72
2022/01/08 07:35:31;;;;;;;;;;;1.30;99.90;;;;;;5056818;28;20003;-72
2022/01/08 07:38:03;;;;;;;;;;;1.30;99.90;;;;;;5052842;28;19921;-73
2022/01/08 07:40:35;;;;;;;;;;;1.30;99.90;;;;;;5048796;28;19943;-72
2022/01/08 07:43:01;;;;;;;;;;;1.30;99.90;;;;;;5049860;28;20015;-73
2022/01/08 07:45:28;;;;;;;;;;;1.30;99.90;;;;;;5037118;28;20339;-73
2022/01/08 07:47:55;;;;;;;;;;;1.40;99.90;;;;;;5035438;28;19921;-72
2022/01/08 07:50:27;;;;;;;;;;;1.40;99.90;;;;;;5049428;28;19920;-73
2022/01/08 07:52:58;;;;;;;;;;;1.40;99.90;;;;;;5036670;28;19920;-73
2022/01/08 07:55:30;;;;;;;;;;;1.40;99.90;;;;;;5053233;28;19939;-73
2022/01/08 07:58:02;;;;;;;;;;;1.50;99.90;;;;;;5016969;28;19924;-74
2022/01/08 08:00:29;;;;;;;;;;;1.50;99.90;;;;;;5017181;28;20012;-74
2022/01/08 08:02:55;;;;;;;;;;;1.50;99.90;;;;;;5052649;28;20373;-73
2022/01/08 08:05:23;;;;;;;;;;;1.50;99.90;;;;;;5050168;28;20389;-73
2022/01/08 08:07:55;;;;;;;;;;;1.50;99.90;;;;;;5050682;28;19921;-73
2022/01/08 08:10:28;;;;;;;;;;;1.40;99.90;;;;;;5047902;28;19931;-73
2022/01/08 08:13:00;;;;;;;;;;;1.40;99.90;;;;;;5022688;28;19943;-73
2022/01/08 08:15:26;;;;;;;;;;;1.30;99.90;;;;;;5052557;28;20476;-72
2022/01/08 08:17:53;;;;;;;;;;;1.40;99.90;;;;;;5017664;28;19927;-74
2022/01/08 08:20:26;;;;;;;;;;;1.40;99.90;;;;;;5046716;28;19967;-73
2022/01/08 08:22:53;;;;;;;;;;;1.40;99.90;;;;;;5033525;28;19921;-73
2022/01/08 08:25:21;;;;;;;;;;;1.40;99.90;;;;;;5037057;28;20027;-73
2022/01/08 08:27:55;;;;;;;;;;;1.40;99.90;;;;;;5023554;28;19927;-73
2022/01/08 08:30:28;;;;;;;;;;;1.40;99.90;;;;;;5032759;28;19921;-73
2022/01/08 08:32:54;;;;;;;;;;;1.40;99.90;;;;;;5018429;28;20036;-74
2022/01/08 08:35:27;;;;;;;;;;;1.40;99.90;;;;;;5045271;28;20000;-73
2022/01/08 08:37:54;;;;;;;;;;;1.40;99.90;;;;;;5034864;28;19920;-72
2022/01/08 08:40:26;;;;;;;;;;;1.40;99.90;;;;;;5035844;28;19983;-72
2022/01/08 08:42:58;;;;;;;;;;;1.40;99.90;;;;;;5053221;28;20007;-72
2022/01/08 08:45:30;;;;;;;;;;;1.30;99.90;;;;;;5053508;28;20373;-73
2022/01/08 08:47:58;;;;;;;;;;;1.30;99.90;;;;;;5035189;28;20019;-74
2022/01/08 08:50:29;;;;;;;;;;;1.20;99.90;;;;;;5050665;28;20015;-73
2022/01/08 08:52:56;;;;;;;;;;;1.20;99.90;;;;;;5018900;28;20015;-72
2022/01/08 08:55:30;;;;;;;;;;;1.20;99.90;;;;;;5051562;28;19948;-72
2022/01/08 08:57:57;;;;;;;;;;;1.20;99.90;;;;;;5033260;28;19927;-72
2022/01/08 09:00:29;;;;;;;;;;;1.10;99.90;;;;;;5068090;28;20003;-72
2022/01/08 09:03:00;;;;;;;;;;;1.10;99.90;;;;;;5033695;28;19971;-72
2022/01/08 09:05:28;;;;;;;;;;;1.20;99.90;;;;;;5035888;28;19921;-72
2022/01/08 09:07:59;;;;;;;;;;;1.20;99.90;;;;;;5016619;28;20453;-72
2022/01/08 09:10:33;;;;;;;;;;;1.20;99.90;;;;;;5018585;28;19987;-72
2022/01/08 09:13:00;;;;;;;;;;;1.20;99.90;;;;;;5050242;28;19927;-72
2022/01/08 09:15:27;;;;;;;;;;;1.10;99.90;;;;;;5044754;28;19943;-72
2022/01/08 09:17:57;;;;;;;;;;;1.20;99.90;;;;;;5037273;28;19927;-72
2022/01/08 09:20:28;;;;;;;;;;;1.20;99.90;;;;;;5034887;28;19920;-72
2022/01/08 09:23:01;;;;;;;;;;;1.20;99.90;;;;;;5039378;28;19931;-72
2022/01/08 09:25:33;;;;;;;;;;;1.10;99.90;;;;;;5031806;28;20019;-73
2022/01/08 09:28:05;;;;;;;;;;;1.10;99.90;;;;;;5033807;28;19987;-72
2022/01/08 09:30:37;;;;;;;;;;;1.00;99.90;;;;;;5052015;28;19925;-72
2022/01/08 09:33:10;;;;;;;;;;;1.00;99.90;;;;;;5033507;28;19921;-72
2022/01/08 09:35:42;;;;;;;;;;;1.10;99.90;;;;;;5042721;28;19960;-72
2022/01/08 09:38:14;;;;;;;;;;;1.10;99.90;;;;;;5049494;28;20616;-72
2022/01/08 09:40:46;;;;;;;;;;;1.10;99.90;;;;;;5049356;28;19927;-71
2022/01/08 09:43:13;;;;;;;;;;;1.20;99.90;;;;;;5052026;28;20395;-72
2022/01/08 09:45:44;;;;;;;;;;;1.20;99.90;;;;;;5022172;28;19921;-73
2022/01/08 09:48:16;;;;;;;;;;;1.20;99.90;;;;;;5017510;28;19925;-72
2022/01/08 09:50:48;;;;;;;;;;;1.30;99.90;;;;;;5050828;28;20344;-73
2022/01/08 09:53:21;;;;;;;;;;;1.30;99.90;;;;;;5033402;28;19947;-72
2022/01/08 09:55:48;;;;;;;;;;;1.30;99.90;;;;;;5034244;28;19921;-72
2022/01/08 09:58:15;;;;;;;;;;;1.30;99.90;;;;;;5026014;28;20648;-72
2022/01/08 10:00:47;;;;;;;;;;;1.40;99.90;;;;;;5019608;28;20385;-72
2022/01/08 10:03:22;;;;;;;;;;;1.50;99.90;;;;;;5017824;28;19927;-73
2022/01/08 10:05:55;;;;;;;;;;;1.50;99.90;;;;;;5025876;28;19928;-72
2022/01/08 10:08:29;;;;;;;;;;;1.50;99.90;;;;;;5033916;28;19927;-72
2022/01/08 10:10:56;;;;;;;;;;;1.60;99.90;;;;;;5027881;28;20541;-72
2022/01/08 10:13:31;;;;;;;;;;;1.60;99.90;;;;;;5035787;28;19924;-72
2022/01/08 10:18:59;;;;;;;;;;;1.60;99.90;;;;;;5034179;28;19931;-72
2022/01/08 10:21:37;;;;;;;;;;;1.60;99.90;;;;;;5052038;28;19931;-72
2022/01/08 10:24:08;;;;;;;;;;;1.60;99.90;;;;;;5050600;28;19927;-73
2022/01/08 10:26:39;;;;;;;;;;;1.70;99.90;;;;;;5035555;28;19920;-74
2022/01/08 10:29:13;;;;;;;;;;;1.70;99.90;;;;;;5033893;28;19921;-73
2022/01/08 10:31:47;;;;;;;;;;;1.70;99.90;;;;;;5052094;28;19963;-72
2022/01/08 10:34:20;;;;;;;;;;;1.60;99.90;;;;;;5033425;28;20385;-72
2022/01/08 10:36:54;;;;;;;;;;;1.60;99.90;;;;;;5046503;28;20427;-72
2022/01/08 10:39:21;;;;;;;;;;;1.70;99.90;;;;;;5023526;28;20420;-72
2022/01/08 10:41:49;;;;;;;;;;;1.70;99.90;;;;;;5051392;28;20016;-72
2022/01/08 10:44:22;;;;;;;;;;;1.60;99.90;;;;;;5033095;28;19920;-71
2022/01/08 10:46:57;;;;;;;;;;;1.50;99.90;;;;;;5038199;28;19964;-72
2022/01/08 10:49:31;;;;;;;;;;;1.50;99.90;;;;;;5051627;28;20385;-72
2022/01/08 10:52:04;;;;;;;;;;;1.50;99.90;;;;;;5027435;28;20008;-72
2022/01/08 10:54:37;;;;;;;;;;;1.40;99.90;;;;;;5025867;28;19920;-71
2022/01/08 10:57:09;;;;;;;;;;;1.40;99.90;;;;;;5045323;28;20416;-72
2022/01/08 10:59:36;;;;;;;;;;;1.40;99.90;;;;;;5037738;28;19967;-72
2022/01/08 11:02:04;;;;;;;;;;;1.30;99.90;;;;;;5019223;28;20296;-72
2022/01/08 11:04:39;;;;;;;;;;;1.40;99.90;;;;;;5012656;28;20394;-72
2022/01/08 11:07:11;;;;;;;;;;;1.40;99.90;;;;;;5031906;28;20015;-72
2022/01/08 11:09:39;;;;;;;;;;;1.50;99.90;;;;;;5015168;28;19929;-73
2022/01/08 11:12:14;;;;;;;;;;;1.50;99.90;;;;;;5031491;28;20385;-71
2022/01/08 11:17:23;;;;;;;;;;;1.40;99.90;;;;;;5032115;28;19925;-72
2022/01/08 11:19:52;;;;;;;;;;;1.50;99.90;;;;;;5047980;28;19921;-72
2022/01/08 11:22:19;;;;;;;;;;;1.60;99.90;;;;;;5032769;28;20015;-72
2022/01/08 11:25:11;;;;;;;;;;;1.60;99.90;;;;;;5050951;28;19924;-72
2022/01/08 11:28:01;;;;;;;;;;;1.60;99.90;;;;;;5048136;28;19920;-72
2022/01/08 11:30:29;;;;;;;;;;;1.70;99.90;;;;;;5049947;28;19956;-71
2022/01/08 11:32:58;;;;;;;;;;;1.70;99.90;;;;;;5044766;28;20011;-72
2022/01/08 11:35:26;;;;;;;;;;;1.80;99.90;;;;;;5029597;28;20015;-72
2022/01/08 11:38:02;;;;;;;;;;;2.00;99.90;;;;;;5053160;28;20382;-72
2022/01/08 11:40:38;;;;;;;;;;;2.20;99.90;;;;;;5029984;28;19927;-72
2022/01/08 11:43:06;;;;;;;;;;;2.20;99.90;;;;;;5050635;28;19942;-72
2022/01/08 11:45:43;;;;;;;;;;;2.20;99.90;;;;;;5032834;28;19921;-72
2022/01/08 11:48:16;;;;;;;;;;;2.20;99.90;;;;;;5050732;28;20019;-72
2022/01/08 11:50:50;;;;;;;;;;;2.10;99.90;;;;;;5033108;28;19931;-72
2022/01/08 11:53:19;;;;;;;;;;;2.00;99.90;;;;;;5034074;28;20019;-71
2022/01/08 11:55:57;;;;;;;;;;;1.90;99.90;;;;;;5052764;28;20019;-72
2022/01/08 11:58:30;;;;;;;;;;;1.80;99.90;;;;;;5034290;28;19927;-72
2022/01/08 12:00:58;;;;;;;;;;;1.80;99.90;;;;;;5033479;28;19921;-71
2022/01/08 12:03:32;;;;;;;;;;;1.80;99.90;;;;;;5051070;28;19983;-73
2022/01/08 12:06:27;;;;;;;;;;;2.00;99.90;;;;;;5032850;28;19962;-72
2022/01/08 12:09:28;;;;;;;;;;;2.10;99.90;;;;;;5038425;28;20011;-72
2022/01/08 12:12:03;;;;;;;;;;;2.40;99.90;;;;;;5033796;28;19948;-72
2022/01/08 12:14:35;;;;;;;;;;;2.60;99.90;;;;;;5032280;28;20015;-73
2022/01/08 12:17:11;;;;;;;;;;;2.70;99.90;;;;;;5051945;28;19925;-72
2022/01/08 12:19:44;;;;;;;;;;;2.80;99.90;;;;;;5037443;28;19921;-72
2022/01/08 12:22:20;;;;;;;;;;;2.70;99.90;;;;;;5036422;28;19960;-73
2022/01/08 12:24:52;;;;;;;;;;;2.80;99.90;;;;;;5036731;28;20029;-72
2022/01/08 12:27:22;;;;;;;;;;;2.70;99.90;;;;;;5035120;28;20388;-72
2022/01/08 12:29:49;;;;;;;;;;;2.80;99.90;;;;;;5037634;28;19920;-72
2022/01/08 12:32:35;;;;;;;;;;;2.70;99.90;;;;;;5048059;28;19924;-73
2022/01/08 12:35:18;;;;;;;;;;;2.60;99.90;;;;;;5042261;28;19921;-72
2022/01/08 12:37:47;;;;;;;;;;;2.60;99.90;;;;;;5021888;28;20412;-72
2022/01/08 12:40:31;;;;;;;;;;;2.50;99.90;;;;;;5033786;28;20491;-72
2022/01/08 12:43:22;;;;;;;;;;;2.60;99.90;;;;;;5032609;28;20385;-72
2022/01/08 12:46:10;;;;;;;;;;;2.40;99.90;;;;;;5053277;28;19951;-72
2022/01/08 12:48:37;;;;;;;;;;;2.40;99.90;;;;;;5048359;28;19927;-72
2022/01/08 12:51:08;;;;;;;;;;;2.40;99.90;;;;;;5035967;28;20372;-72
2022/01/08 12:53:35;;;;;;;;;;;2.40;99.90;;;;;;5053479;28;20354;-72
2022/01/08 12:56:08;;;;;;;;;;;2.40;99.90;;;;;;5031162;28;20347;-72
2022/01/08 12:58:44;;;;;;;;;;;2.50;99.90;;;;;;5035391;28;19921;-72
2022/01/08 13:01:18;;;;;;;;;;;2.50;99.90;;;;;;5035546;28;19920;-72
2022/01/08 13:03:46;;;;;;;;;;;2.50;99.90;;;;;;5042422;28;20015;-73
2022/01/08 13:06:18;;;;;;;;;;;2.50;99.90;;;;;;5044291;28;19927;-72
2022/01/08 13:08:52;;;;;;;;;;;2.60;99.90;;;;;;5048718;28;20617;-72
2022/01/08 13:11:28;;;;;;;;;;;2.60;99.90;;;;;;5045650;28;19921;-72
2022/01/08 13:13:57;;;;;;;;;;;2.50;99.90;;;;;;5027220;28;19959;-72
2022/01/08 13:16:28;;;;;;;;;;;2.50;99.90;;;;;;5014879;28;20356;-73
2022/01/08 13:19:14;;;;;;;;;;;2.40;99.90;;;;;;5033750;28;19921;-72
2022/01/08 13:21:45;;;;;;;;;;;2.30;99.90;;;;;;5042329;28;19921;-72
2022/01/08 13:24:24;;;;;;;;;;;2.20;99.90;;;;;;5031215;28;19994;-72
2022/01/08 13:26:57;;;;;;;;;;;2.10;99.90;;;;;;5020867;28;19927;-72
2022/01/08 13:29:31;;;;;;;;;;;2.00;99.90;;;;;;5043218;28;19921;-73
2022/01/08 13:31:58;;;;;;;;;;;2.00;99.90;;;;;;5029211;28;19921;-73
2022/01/08 13:34:32;;;;;;;;;;;1.90;99.90;;;;;;5034610;28;19927;-73
2022/01/08 13:37:08;;;;;;;;;;;1.90;99.90;;;;;;5038341;28;19921;-73
2022/01/08 13:39:35;;;;;;;;;;;1.90;99.90;;;;;;5034872;28;19960;-73
2022/01/08 13:42:10;;;;;;;;;;;1.80;99.90;;;;;;5052120;28;20278;-73
2022/01/08 13:44:38;;;;;;;;;;;1.90;99.90;;;;;;5033099;28;19926;-73
2022/01/08 13:47:22;;;;;;;;;;;1.80;99.90;;;;;;4999477;28;19927;-72
2022/01/08 13:49:55;;;;;;;;;;;2.00;99.90;;;;;;5013834;28;19921;-73
2022/01/08 13:52:33;;;;;;;;;;;2.00;99.90;;;;;;5034597;28;19920;-73
2022/01/08 13:55:11;;;;;;;;;;;2.00;99.90;;;;;;5034539;28;19927;-71
2022/01/08 13:57:44;;;;;;;;;;;2.10;99.90;;;;;;5007248;28;20309;-73
2022/01/08 14:00:16;;;;;;;;;;;2.10;99.90;;;;;;5018128;28;19921;-71
2022/01/08 14:02:43;;;;;;;;;;;2.20;99.90;;;;;;5048059;28;19921;-73
2022/01/08 14:05:10;;;;;;;;;;;2.20;99.90;;;;;;5047316;28;19925;-73
2022/01/08 14:07:42;;;;;;;;;;;2.20;99.90;;;;;;5050922;28;20376;-72
2022/01/08 14:10:14;;;;;;;;;;;2.20;99.90;;;;;;5019518;28;20393;-73
2022/01/08 14:12:59;;;;;;;;;;;2.20;99.90;;;;;;5019380;28;20011;-73
2022/01/08 14:15:26;;;;;;;;;;;2.20;99.90;;;;;;5014157;28;20024;-73
2022/01/08 14:18:07;;;;;;;;;;;2.20;99.90;;;;;;5032237;28;20023;-73
2022/01/08 14:20:33;;;;;;;;;;;2.20;99.90;;;;;;5052170;28;20035;-73
2022/01/08 14:23:10;;;;;;;;;;;2.20;99.90;;;;;;5016344;28;19920;-74
2022/01/08 14:25:37;;;;;;;;;;;2.10;99.90;;;;;;5051579;28;19926;-73
2022/01/08 14:28:18;;;;;;;;;;;2.00;99.90;;;;;;5019910;28;19987;-73
2022/01/08 14:30:50;;;;;;;;;;;1.90;99.90;;;;;;5014708;28;19925;-73
2022/01/08 14:33:22;;;;;;;;;;;1.90;99.90;;;;;;5031424;28;20296;-73
2022/01/08 14:35:57;;;;;;;;;;;1.80;99.90;;;;;;5013580;28;19927;-73
2022/01/08 14:38:29;;;;;;;;;;;1.80;99.90;;;;;;5014643;28;19921;-73
2022/01/08 14:41:00;;;;;;;;;;;1.80;99.90;;;;;;5014865;28;19921;-73
2022/01/08 14:43:27;;;;;;;;;;;1.80;99.90;;;;;;5016558;28;20301;-72
2022/01/08 14:45:59;;;;;;;;;;;1.80;99.90;;;;;;5032766;28;19921;-73
2022/01/08 14:48:30;;;;;;;;;;;1.70;99.90;;;;;;5037796;28;20119;-73
2022/01/08 14:51:02;;;;;;;;;;;1.70;99.90;;;;;;5042546;28;20008;-73
2022/01/08 14:53:33;;;;;;;;;;;1.60;99.90;;;;;;5033461;28;20015;-72
2022/01/08 14:56:05;;;;;;;;;;;1.50;99.90;;;;;;5034486;28;20384;-73
2022/01/08 14:58:38;;;;;;;;;;;1.40;99.90;;;;;;5013818;28;20011;-73
2022/01/08 15:01:10;;;;;;;;;;;1.40;99.90;;;;;;5046236;28;19927;-73
2022/01/08 15:03:36;;;;;;;;;;;1.30;99.90;;;;;;5051329;28;19927;-73
2022/01/08 15:06:10;;;;;;;;;;;1.40;99.90;;;;;;5023080;28;19927;-73
2022/01/08 15:08:42;;;;;;;;;;;1.30;99.90;;;;;;5064216;28;19920;-73
2022/01/08 15:11:11;;;;;;;;;;;1.20;99.90;;;;;;5043442;28;20433;-73
2022/01/08 15:13:38;;;;;;;;;;;1.20;99.90;;;;;;5032826;28;20304;-73
2022/01/08 15:16:06;;;;;;;;;;;1.10;99.90;;;;;;5050949;28;20015;-72
2022/01/08 15:18:39;;;;;;;;;;;1.00;99.90;;;;;;5032927;28;19921;-73